Time;durP1;ratioP1;P1;durP2;ratioP2;P2;SDS_P1;SDS_P2;PMS_P1;PMS_P2;Temp;Humidity;BMP_temperature;BMP_pressure;BME280_temperature;BME280_humidity;BME280_pressure;Samples;Min_cycle;Max_cycle;Signal;HPM_P1;HPM_P2
2023/12/20 00:01:35;;;;;;;24.80;3.20;;;7.80;99.90;;;;;;5023740;28;20095;-74
2023/12/20 00:04:01;;;;;;;27.38;3.25;;;7.80;99.90;;;;;;5022232;28;20489;-74
2023/12/20 00:06:26;;;;;;;29.55;3.50;;;7.80;99.90;;;;;;5027031;28;20023;-74
2023/12/20 00:08:52;;;;;;;19.95;3.42;;;7.80;99.90;;;;;;5018003;28;20430;-74
2023/12/20 00:11:18;;;;;;;23.40;4.38;;;7.80;99.90;;;;;;5011944;28;20014;-74
2023/12/20 00:13:43;;;;;;;23.80;3.60;;;7.80;99.90;;;;;;5017234;28;20101;-75
2023/12/20 00:16:09;;;;;;;19.83;3.88;;;7.80;99.90;;;;;;5015518;28;20455;-75
2023/12/20 00:18:35;;;;;;;23.58;3.63;;;7.90;99.90;;;;;;5027394;28;20059;-74
2023/12/20 00:21:00;;;;;;;27.70;3.33;;;7.90;99.90;;;;;;5015155;28;20026;-74
2023/12/20 00:23:26;;;;;;;28.10;3.78;;;7.90;99.90;;;;;;5021127;28;20057;-74
2023/12/20 00:25:51;;;;;;;24.38;3.65;;;7.90;99.90;;;;;;5020103;28;20029;-75
2023/12/20 00:28:17;;;;;;;19.60;3.33;;;7.90;99.90;;;;;;5024287;28;20485;-74
2023/12/20 00:30:43;;;;;;;23.80;4.13;;;7.90;99.90;;;;;;5024854;28;20018;-75
2023/12/20 00:33:08;;;;;;;25.33;4.25;;;7.90;99.90;;;;;;5093395;28;20017;-74
2023/12/20 00:35:34;;;;;;;22.73;3.50;;;7.90;99.90;;;;;;5022983;28;20489;-74
2023/12/20 00:37:59;;;;;;;25.05;3.55;;;7.90;99.90;;;;;;5015726;28;20090;-75
2023/12/20 00:40:25;;;;;;;24.65;3.35;;;8.00;99.90;;;;;;5027508;28;20067;-74
2023/12/20 00:42:51;;;;;;;23.42;3.58;;;8.00;99.90;;;;;;5026536;28;20052;-74
2023/12/20 00:45:16;;;;;;;24.20;4.03;;;8.00;99.90;;;;;;5027386;28;20033;-75
2023/12/20 00:47:42;;;;;;;23.45;3.42;;;7.90;99.90;;;;;;5023259;28;20081;-75
2023/12/20 00:50:08;;;;;;;25.02;4.07;;;7.90;99.90;;;;;;5027220;28;20499;-75
2023/12/20 00:52:34;;;;;;;21.52;3.47;;;7.90;99.90;;;;;;5019683;28;20033;-75
2023/12/20 00:55:00;;;;;;;28.45;3.63;;;8.00;99.90;;;;;;5026975;28;20466;-75
2023/12/20 00:57:25;;;;;;;23.98;3.42;;;8.00;99.90;;;;;;5026960;28;20321;-75
2023/12/20 00:59:51;;;;;;;17.92;3.47;;;7.90;99.90;;;;;;5026495;28;20022;-75
2023/12/20 01:02:16;;;;;;;21.27;3.55;;;7.90;99.90;;;;;;5019742;28;20018;-75
2023/12/20 01:04:42;;;;;;;22.13;3.75;;;7.90;99.90;;;;;;5023163;28;20079;-75
2023/12/20 01:07:08;;;;;;;25.88;3.97;;;7.90;99.90;;;;;;5019521;28;20071;-75
2023/12/20 01:09:34;;;;;;;23.27;3.83;;;7.90;99.90;;;;;;5024993;28;20030;-75
2023/12/20 01:11:59;;;;;;;24.58;3.60;;;7.90;99.90;;;;;;5029260;28;20014;-75
2023/12/20 01:14:25;;;;;;;35.22;4.10;;;7.90;99.90;;;;;;5025390;28;20037;-75
2023/12/20 01:16:51;;;;;;;25.30;4.22;;;7.90;99.90;;;;;;5022433;28;20061;-75
2023/12/20 01:19:16;;;;;;;21.75;4.13;;;8.00;99.90;;;;;;5029816;28;20025;-74
2023/12/20 01:21:42;;;;;;;26.88;4.05;;;8.00;99.90;;;;;;5030318;28;20033;-74
2023/12/20 01:24:07;;;;;;;27.90;3.97;;;8.00;99.90;;;;;;5025267;28;20486;-75
2023/12/20 01:26:33;;;;;;;24.40;4.10;;;8.00;99.90;;;;;;5013830;28;20014;-75
2023/12/20 01:28:59;;;;;;;27.60;3.92;;;8.00;99.90;;;;;;5029739;28;20100;-75
2023/12/20 01:31:24;;;;;;;28.77;3.90;;;8.00;99.90;;;;;;5029610;28;20528;-75
2023/12/20 01:33:50;;;;;;;23.13;3.30;;;8.00;99.90;;;;;;5029730;28;20134;-75
2023/12/20 01:36:15;;;;;;;21.55;4.05;;;8.10;99.90;;;;;;5029573;28;20607;-75
2023/12/20 01:38:41;;;;;;;23.75;3.63;;;8.00;99.90;;;;;;5022176;28;20334;-75
2023/12/20 01:41:07;;;;;;;20.25;3.63;;;8.10;99.90;;;;;;5029715;28;20075;-75
2023/12/20 01:43:32;;;;;;;21.45;3.42;;;8.10;99.90;;;;;;5098297;28;20030;-75
2023/12/20 01:45:58;;;;;;;22.23;3.95;;;8.10;99.90;;;;;;5024478;28;20018;-75
2023/12/20 01:48:25;;;;;;;21.55;3.47;;;8.20;99.90;;;;;;5029762;27;20035;-75
2023/12/20 01:50:52;;;;;;;18.88;3.58;;;8.20;99.90;;;;;;5097039;28;20028;-75
2023/12/20 01:53:20;;;;;;;21.30;3.42;;;8.20;99.90;;;;;;5026825;28;20018;-75
2023/12/20 01:55:46;;;;;;;22.02;3.47;;;8.20;99.90;;;;;;5029650;28;20032;-75
2023/12/20 01:58:13;;;;;;;35.97;4.03;;;8.20;99.90;;;;;;5028619;28;20029;-75
2023/12/20 02:00:39;;;;;;;25.45;4.00;;;8.20;99.90;;;;;;5029501;28;20018;-75
2023/12/20 02:03:05;;;;;;;26.08;3.95;;;8.20;99.90;;;;;;5028719;28;20094;-75
2023/12/20 02:05:32;;;;;;;30.13;4.18;;;8.20;99.90;;;;;;5027575;28;20037;-75
2023/12/20 02:07:58;;;;;;;27.45;3.78;;;8.20;99.90;;;;;;5097527;28;20030;-75
2023/12/20 02:10:24;;;;;;;31.83;3.70;;;8.20;99.90;;;;;;5027856;28;20022;-75
2023/12/20 02:12:50;;;;;;;25.70;3.38;;;8.20;99.90;;;;;;5022781;28;20014;-75
2023/12/20 02:15:15;;;;;;;24.40;3.83;;;8.20;99.90;;;;;;5016433;28;20072;-75
2023/12/20 02:17:41;;;;;;;28.90;4.20;;;8.20;99.90;;;;;;5028805;28;20082;-75
2023/12/20 02:20:07;;;;;;;20.55;3.78;;;8.20;99.90;;;;;;5024191;28;20121;-75
2023/12/20 02:22:33;;;;;;;29.60;3.92;;;8.20;99.90;;;;;;5026574;28;20025;-75
2023/12/20 02:24:58;;;;;;;21.52;3.38;;;8.20;99.90;;;;;;5026792;28;20078;-75
2023/12/20 02:27:24;;;;;;;24.75;3.90;;;8.20;99.90;;;;;;5107496;27;20477;-75
2023/12/20 02:29:50;;;;;;;27.65;4.07;;;8.20;99.90;;;;;;5026454;28;20405;-75
2023/12/20 02:32:18;;;;;;;28.60;4.65;;;8.10;99.90;;;;;;5025669;28;20478;-75
2023/12/20 02:34:44;;;;;;;26.35;3.75;;;8.10;99.90;;;;;;5029225;28;20473;-75
2023/12/20 02:37:09;;;;;;;18.80;3.97;;;8.00;99.90;;;;;;5026898;28;20029;-75
2023/12/20 02:39:35;;;;;;;23.77;3.97;;;8.00;99.90;;;;;;5026326;28;20109;-75
2023/12/20 02:42:00;;;;;;;26.20;3.72;;;8.00;99.90;;;;;;5026100;28;20405;-75
2023/12/20 02:44:26;;;;;;;25.73;4.00;;;8.00;99.90;;;;;;5028325;28;20030;-75
2023/12/20 02:46:51;;;;;;;26.30;4.22;;;8.00;99.90;;;;;;5028375;28;20021;-75
2023/12/20 02:49:18;;;;;;;21.48;3.72;;;8.00;99.90;;;;;;5028634;28;20022;-75
2023/12/20 02:51:43;;;;;;;29.80;4.00;;;8.10;99.90;;;;;;5028847;28;20018;-75
2023/12/20 02:54:09;;;;;;;30.45;4.00;;;8.10;99.90;;;;;;5026825;28;20359;-75
2023/12/20 02:56:34;;;;;;;31.05;4.15;;;8.10;99.90;;;;;;5028606;28;20074;-75
2023/12/20 02:59:00;;;;;;;22.08;4.15;;;8.20;99.90;;;;;;5019015;28;20502;-75
2023/12/20 03:01:26;;;;;;;29.38;4.03;;;8.10;99.90;;;;;;5026909;28;20431;-75
2023/12/20 03:03:52;;;;;;;29.45;4.30;;;8.10;99.90;;;;;;5029016;28;20474;-75
2023/12/20 03:06:18;;;;;;;28.83;4.28;;;8.10;99.90;;;;;;5021962;28;20025;-75
2023/12/20 03:08:45;;;;;;;26.15;3.72;;;8.10;99.90;;;;;;5028523;28;20488;-75
2023/12/20 03:11:10;;;;;;;18.27;3.40;;;8.10;99.90;;;;;;5027042;28;20033;-75
2023/12/20 03:13:36;;;;;;;31.38;3.85;;;8.20;99.90;;;;;;5027434;28;20017;-75
2023/12/20 03:16:07;;;;;;;23.88;4.40;;;8.10;99.90;;;;;;5022035;28;20058;-75
2023/12/20 03:18:33;;;;;;;27.05;3.50;;;8.10;99.90;;;;;;5027109;28;20082;-75
2023/12/20 03:20:59;;;;;;;25.80;3.72;;;8.10;99.90;;;;;;5028160;28;20030;-75
2023/12/20 03:23:24;;;;;;;22.88;3.83;;;8.10;99.90;;;;;;5027842;28;20017;-75
2023/12/20 03:25:50;;;;;;;27.25;3.63;;;8.10;99.90;;;;;;5028293;28;20065;-75
2023/12/20 03:28:16;;;;;;;24.50;3.60;;;8.10;99.90;;;;;;5021783;28;20029;-75
2023/12/20 03:30:41;;;;;;;25.50;4.38;;;8.10;99.90;;;;;;5027736;28;20111;-75
2023/12/20 03:33:07;;;;;;;27.85;4.28;;;8.10;99.90;;;;;;5013729;28;20025;-75
2023/12/20 03:35:33;;;;;;;24.95;3.65;;;8.10;99.90;;;;;;5026211;28;20045;-75
2023/12/20 03:38:00;;;;;;;24.95;3.63;;;8.10;99.90;;;;;;5027727;28;20363;-75
2023/12/20 03:40:25;;;;;;;22.23;3.75;;;8.10;99.90;;;;;;5028023;28;20116;-75
2023/12/20 03:42:51;;;;;;;24.40;3.80;;;8.10;99.90;;;;;;5020655;28;20105;-75
2023/12/20 03:45:17;;;;;;;25.42;3.85;;;8.10;99.90;;;;;;5022278;28;20109;-75
2023/12/20 03:47:42;;;;;;;29.05;4.15;;;8.00;99.90;;;;;;5027806;28;20112;-75
2023/12/20 03:50:08;;;;;;;25.58;3.58;;;8.00;99.90;;;;;;5027650;28;20022;-75
2023/12/20 03:52:33;;;;;;;23.50;4.05;;;8.00;99.90;;;;;;5023551;28;20052;-75
2023/12/20 03:54:59;;;;;;;28.50;4.35;;;8.00;99.90;;;;;;5026980;28;20030;-75
2023/12/20 03:57:24;;;;;;;28.17;3.47;;;8.00;99.90;;;;;;5027605;28;20037;-75
2023/12/20 03:59:50;;;;;;;30.63;4.53;;;8.00;99.90;;;;;;5027719;28;20026;-75
2023/12/20 04:02:17;;;;;;;28.92;4.38;;;7.90;99.90;;;;;;5014492;28;20018;-75
2023/12/20 04:04:43;;;;;;;30.63;4.30;;;7.90;99.90;;;;;;5013991;28;20022;-75
2023/12/20 04:07:09;;;;;;;28.85;3.97;;;7.90;99.90;;;;;;5014033;28;20025;-75
2023/12/20 04:09:34;;;;;;;23.23;4.15;;;7.90;99.90;;;;;;5026066;28;20062;-75
2023/12/20 04:12:00;;;;;;;28.77;3.60;;;7.90;99.90;;;;;;5023266;28;20021;-75
2023/12/20 04:14:25;;;;;;;27.73;4.43;;;7.90;99.90;;;;;;5025745;28;20030;-76
2023/12/20 04:16:51;;;;;;;26.70;4.15;;;7.90;99.90;;;;;;5021493;28;20541;-75
2023/12/20 04:19:16;;;;;;;26.27;3.95;;;8.00;99.90;;;;;;5020255;28;20033;-75
2023/12/20 04:21:43;;;;;;;31.17;4.43;;;8.00;99.90;;;;;;5023407;28;20102;-75
2023/12/20 04:24:09;;;;;;;28.58;3.95;;;8.00;99.90;;;;;;5026867;28;20448;-75
2023/12/20 04:26:34;;;;;;;36.00;3.72;;;8.00;99.90;;;;;;5011211;28;20057;-76
2023/12/20 04:29:00;;;;;;;25.20;4.18;;;8.00;99.90;;;;;;5013267;28;20071;-75
2023/12/20 04:31:26;;;;;;;35.90;4.35;;;8.00;99.90;;;;;;5027659;28;20021;-75
2023/12/20 04:33:51;;;;;;;32.80;4.20;;;8.00;99.90;;;;;;5024218;28;20469;-75
2023/12/20 04:36:17;;;;;;;26.42;3.50;;;7.90;99.90;;;;;;5016497;28;20025;-75
2023/12/20 04:38:42;;;;;;;23.88;4.13;;;7.90;99.90;;;;;;5025884;28;20033;-75
2023/12/20 04:41:08;;;;;;;28.20;4.20;;;7.90;99.90;;;;;;5021093;28;20021;-75
2023/12/20 04:43:33;;;;;;;28.70;4.15;;;7.90;99.90;;;;;;5006930;28;20022;-75
2023/12/20 04:45:59;;;;;;;24.27;3.85;;;7.90;99.90;;;;;;5012698;28;20049;-75
2023/12/20 04:48:25;;;;;;;28.00;3.85;;;7.90;99.90;;;;;;5026108;28;20482;-75
2023/12/20 04:50:50;;;;;;;26.00;4.00;;;7.90;99.90;;;;;;5014391;28;20029;-75
2023/12/20 04:53:16;;;;;;;33.50;4.22;;;7.90;99.90;;;;;;5017284;28;20018;-75
2023/12/20 04:55:41;;;;;;;23.92;3.53;;;7.90;99.90;;;;;;5016867;28;20026;-75
2023/12/20 04:58:07;;;;;;;26.20;4.65;;;7.90;99.90;;;;;;5014915;28;20029;-76
2023/12/20 05:00:32;;;;;;;26.45;3.92;;;7.90;99.90;;;;;;5026400;28;20030;-76
2023/12/20 05:02:58;;;;;;;24.63;4.30;;;7.90;99.90;;;;;;5024040;28;20025;-76
2023/12/20 05:05:23;;;;;;;26.27;3.75;;;7.90;99.90;;;;;;5026706;28;20025;-76
2023/12/20 05:07:49;;;;;;;30.83;4.45;;;7.90;99.90;;;;;;5017078;28;20037;-75
2023/12/20 05:10:15;;;;;;;33.25;4.47;;;7.90;99.90;;;;;;5016536;28;20437;-75
2023/12/20 05:12:40;;;;;;;37.25;5.13;;;7.90;99.90;;;;;;5022480;28;20018;-75
2023/12/20 05:15:07;;;;;;;29.77;4.10;;;7.90;99.90;;;;;;5019208;28;20497;-76
2023/12/20 05:17:32;;;;;;;28.20;4.20;;;7.90;99.90;;;;;;5018953;28;20542;-75
2023/12/20 05:19:58;;;;;;;24.63;4.18;;;7.80;99.90;;;;;;5026300;28;20044;-75
2023/12/20 05:22:24;;;;;;;26.23;4.60;;;7.90;99.90;;;;;;5023089;28;20018;-75
2023/12/20 05:24:49;;;;;;;27.30;3.65;;;7.80;99.90;;;;;;5010343;28;20026;-75
2023/12/20 05:27:15;;;;;;;26.10;3.97;;;7.90;99.90;;;;;;5025980;28;20103;-76
2023/12/20 05:29:41;;;;;;;28.55;4.40;;;7.90;99.90;;;;;;5016614;28;20050;-75
2023/12/20 05:32:06;;;;;;;29.05;4.55;;;7.90;99.90;;;;;;5010302;28;20028;-75
2023/12/20 05:34:32;;;;;;;25.40;4.20;;;7.90;99.90;;;;;;5026348;28;20573;-75
2023/12/20 05:36:58;;;;;;;34.40;4.15;;;7.90;99.90;;;;;;5025955;28;20487;-75
2023/12/20 05:39:24;;;;;;;28.17;5.22;;;7.90;99.90;;;;;;5034668;28;20033;-75
2023/12/20 05:41:49;;;;;;;25.73;4.28;;;7.90;99.90;;;;;;5023763;28;20386;-75
2023/12/20 05:44:15;;;;;;;26.00;4.15;;;7.90;99.90;;;;;;5021199;28;20029;-75
2023/12/20 05:46:40;;;;;;;31.55;4.53;;;8.00;99.90;;;;;;5025446;28;20101;-75
2023/12/20 05:49:06;;;;;;;24.63;3.67;;;8.00;99.90;;;;;;5016567;28;20033;-75
2023/12/20 05:51:32;;;;;;;25.38;3.88;;;8.00;99.90;;;;;;5026572;28;20509;-75
2023/12/20 05:53:58;;;;;;;29.20;4.15;;;8.00;99.90;;;;;;5027251;28;20060;-75
2023/12/20 05:56:24;;;;;;;35.67;4.30;;;8.00;99.90;;;;;;5025882;28;20022;-75
2023/12/20 05:58:49;;;;;;;26.90;4.32;;;8.00;99.90;;;;;;5022159;28;20032;-75
2023/12/20 06:01:17;;;;;;;25.15;4.03;;;8.00;99.90;;;;;;5018814;28;20516;-75
2023/12/20 06:03:43;;;;;;;26.88;4.15;;;8.00;99.90;;;;;;5026562;28;20030;-75
2023/12/20 06:06:09;;;;;;;31.33;3.60;;;8.10;99.90;;;;;;5019738;28;20025;-75
2023/12/20 06:08:34;;;;;;;22.88;4.40;;;8.10;99.90;;;;;;5027586;28;20049;-76
2023/12/20 06:11:00;;;;;;;33.85;4.10;;;8.10;99.90;;;;;;5026863;28;20106;-76
2023/12/20 06:13:26;;;;;;;28.38;4.75;;;8.10;99.90;;;;;;5021144;28;20388;-76
2023/12/20 06:15:54;;;;;;;30.83;4.30;;;8.10;99.90;;;;;;5028114;28;20447;-76
2023/12/20 06:18:19;;;;;;;24.73;3.78;;;8.20;99.90;;;;;;5021717;28;20037;-76
2023/12/20 06:20:45;;;;;;;26.55;3.90;;;8.20;99.90;;;;;;5028411;28;20025;-76
2023/12/20 06:23:10;;;;;;;26.25;4.25;;;8.20;99.90;;;;;;5026178;28;20530;-76
2023/12/20 06:25:36;;;;;;;22.75;4.03;;;8.20;99.90;;;;;;5023248;28;20029;-76
2023/12/20 06:28:01;;;;;;;28.92;3.97;;;8.30;99.90;;;;;;5020795;28;20433;-76
2023/12/20 06:30:27;;;;;;;30.83;4.22;;;8.30;99.90;;;;;;5024115;27;20029;-76
2023/12/20 06:32:54;;;;;;;22.88;3.80;;;8.30;99.90;;;;;;5024565;28;20056;-76
2023/12/20 06:35:20;;;;;;;31.55;5.00;;;8.30;99.90;;;;;;5023458;28;20046;-76
2023/12/20 06:37:45;;;;;;;28.58;4.43;;;8.30;99.90;;;;;;5027400;28;20064;-76
2023/12/20 06:40:11;;;;;;;31.58;4.18;;;8.30;99.90;;;;;;5016706;28;20066;-76
2023/12/20 06:42:37;;;;;;;28.27;4.78;;;8.30;99.90;;;;;;5016385;28;20049;-76
2023/12/20 06:45:03;;;;;;;23.10;4.18;;;8.30;99.90;;;;;;5028936;28;20049;-76
2023/12/20 06:47:29;;;;;;;24.35;4.40;;;8.30;99.90;;;;;;5015254;28;20061;-76
2023/12/20 06:49:54;;;;;;;30.40;4.47;;;8.30;99.90;;;;;;5019700;28;20787;-76
2023/12/20 06:52:20;;;;;;;29.35;4.80;;;8.30;99.90;;;;;;5030256;27;20025;-76
2023/12/20 06:54:45;;;;;;;31.95;4.28;;;8.30;99.90;;;;;;5024066;28;20021;-76
2023/12/20 06:57:11;;;;;;;24.00;3.83;;;8.30;99.90;;;;;;5027305;28;20086;-76
2023/12/20 06:59:41;;;;;;;26.05;3.85;;;8.30;99.90;;;;;;5021794;28;20030;-76
2023/12/20 07:02:06;;;;;;;37.78;4.45;;;8.30;99.90;;;;;;5019220;28;20090;-76
2023/12/20 07:04:32;;;;;;;26.17;4.00;;;8.20;99.90;;;;;;5021868;28;20473;-76
2023/12/20 07:07:00;;;;;;;30.42;4.05;;;8.30;99.90;;;;;;5024587;28;20108;-76
2023/12/20 07:09:26;;;;;;;33.40;4.85;;;8.20;99.90;;;;;;5020801;28;20462;-76
2023/12/20 07:11:52;;;;;;;30.20;4.78;;;8.20;99.90;;;;;;5026353;28;20053;-76
2023/12/20 07:14:18;;;;;;;30.42;4.35;;;8.20;99.90;;;;;;5027926;28;20041;-76
2023/12/20 07:16:43;;;;;;;33.40;4.22;;;8.20;99.90;;;;;;5024556;28;20045;-76
2023/12/20 07:19:09;;;;;;;36.25;4.60;;;8.10;99.90;;;;;;5027081;28;20517;-76
2023/12/20 07:21:34;;;;;;;31.05;4.28;;;8.10;99.90;;;;;;5025153;28;20033;-76
2023/12/20 07:24:00;;;;;;;30.45;5.15;;;8.10;99.90;;;;;;5095693;28;20018;-76
2023/12/20 07:26:26;;;;;;;38.15;4.53;;;8.10;99.90;;;;;;5021336;28;20021;-76
2023/12/20 07:28:51;;;;;;;32.55;4.53;;;8.10;99.90;;;;;;5023102;28;20469;-76
2023/12/20 07:31:17;;;;;;;31.58;4.10;;;8.10;99.90;;;;;;5022532;28;20061;-76
2023/12/20 07:33:43;;;;;;;26.08;4.50;;;8.00;99.90;;;;;;5029324;28;20515;-75
2023/12/20 07:36:08;;;;;;;26.95;4.03;;;8.10;99.90;;;;;;5019515;28;20081;-76
2023/12/20 07:38:34;;;;;;;27.45;4.10;;;8.00;99.90;;;;;;5021379;28;20030;-75
2023/12/20 07:41:00;;;;;;;28.08;4.47;;;8.00;99.90;;;;;;5027298;28;20037;-76
2023/12/20 07:43:25;;;;;;;31.38;4.63;;;8.00;99.90;;;;;;5024518;28;20423;-76
2023/12/20 07:45:51;;;;;;;27.90;4.55;;;8.00;99.90;;;;;;5025160;28;20438;-76
2023/12/20 07:48:17;;;;;;;26.80;3.80;;;8.10;99.90;;;;;;5023612;28;20130;-76
2023/12/20 07:50:42;;;;;;;31.30;4.05;;;8.10;99.90;;;;;;5017966;28;20394;-76
2023/12/20 07:53:08;;;;;;;31.23;4.47;;;8.10;99.90;;;;;;5026871;28;20109;-76
2023/12/20 07:55:34;;;;;;;30.58;4.18;;;8.10;99.90;;;;;;5025471;28;20026;-76
2023/12/20 07:58:00;;;;;;;22.80;3.83;;;8.10;99.90;;;;;;5016634;28;20494;-76
2023/12/20 08:00:26;;;;;;;29.98;4.00;;;8.10;99.90;;;;;;5023889;28;20040;-76
2023/12/20 08:02:52;;;;;;;25.77;3.70;;;8.10;99.90;;;;;;5024851;28;20078;-75
2023/12/20 08:05:18;;;;;;;26.80;4.25;;;8.20;99.90;;;;;;5027163;28;20529;-76
2023/12/20 08:07:43;;;;;;;27.92;4.38;;;8.20;99.90;;;;;;5022998;28;20112;-76
2023/12/20 08:10:09;;;;;;;21.98;3.75;;;8.20;99.90;;;;;;5023456;27;20071;-76
2023/12/20 08:12:35;;;;;;;29.90;4.18;;;8.20;99.90;;;;;;5013324;28;20586;-76
2023/12/20 08:15:01;;;;;;;25.70;3.70;;;8.30;99.90;;;;;;5023515;28;20049;-76
2023/12/20 08:17:27;;;;;;;33.40;4.63;;;8.30;99.90;;;;;;5011896;28;20166;-76
2023/12/20 08:19:52;;;;;;;25.27;4.05;;;8.30;99.90;;;;;;5021747;28;20112;-76
2023/12/20 08:22:18;;;;;;;25.52;3.88;;;8.40;99.90;;;;;;5021667;28;20022;-76
2023/12/20 08:24:43;;;;;;;22.60;3.80;;;8.30;99.90;;;;;;5055911;27;20371;-76
2023/12/20 08:27:09;;;;;;;27.05;4.13;;;8.40;99.90;;;;;;5024181;28;20586;-76
2023/12/20 08:29:35;;;;;;;28.33;3.67;;;8.40;99.90;;;;;;5024603;28;20040;-76
2023/12/20 08:32:01;;;;;;;21.17;3.22;;;8.50;99.90;;;;;;5020224;28;20057;-76
2023/12/20 08:34:27;;;;;;;24.60;3.38;;;8.50;99.90;;;;;;5015605;28;20027;-76
2023/12/20 08:36:53;;;;;;;24.05;4.35;;;8.50;99.90;;;;;;5026649;28;20114;-76
2023/12/20 08:39:19;;;;;;;20.98;3.78;;;8.50;99.90;;;;;;5026147;28;20110;-76
2023/12/20 08:41:44;;;;;;;23.73;3.85;;;8.60;99.90;;;;;;5026812;28;20093;-75
2023/12/20 08:44:10;;;;;;;22.20;4.05;;;8.60;99.90;;;;;;5023847;28;20097;-76
2023/12/20 08:46:36;;;;;;;25.95;3.83;;;8.60;99.90;;;;;;5041856;28;20027;-76
2023/12/20 08:49:02;;;;;;;21.30;3.92;;;8.60;99.90;;;;;;5023375;28;20018;-76
2023/12/20 08:51:27;;;;;;;27.90;4.68;;;8.70;99.90;;;;;;5021529;28;20021;-76
2023/12/20 08:53:53;;;;;;;21.42;3.63;;;8.70;99.90;;;;;;5025917;28;20401;-76
2023/12/20 08:56:19;;;;;;;21.48;3.47;;;8.70;99.90;;;;;;5027210;28;20030;-76
2023/12/20 08:58:46;;;;;;;27.83;3.47;;;8.70;99.90;;;;;;5025577;28;20037;-76
2023/12/20 09:01:12;;;;;;;26.67;4.10;;;8.80;99.90;;;;;;5025067;28;20022;-76
2023/12/20 09:03:38;;;;;;;23.45;3.70;;;8.80;99.90;;;;;;5026531;28;20032;-76
2023/12/20 09:06:05;;;;;;;26.55;3.42;;;8.80;99.90;;;;;;5019821;28;20033;-76
2023/12/20 09:08:30;;;;;;;22.65;3.78;;;8.90;99.90;;;;;;5025653;28;20348;-76
2023/12/20 09:10:56;;;;;;;21.63;3.92;;;8.90;99.90;;;;;;5021861;28;20029;-76
2023/12/20 09:13:26;;;;;;;29.67;4.22;;;8.90;99.90;;;;;;5026603;28;20029;-75
2023/12/20 09:15:52;;;;;;;27.38;3.90;;;8.90;99.90;;;;;;5022771;28;20163;-77
2023/12/20 09:18:17;;;;;;;26.83;3.55;;;9.00;99.90;;;;;;5021037;28;20134;-76
2023/12/20 09:20:43;;;;;;;28.35;4.18;;;9.00;99.90;;;;;;5026464;28;20026;-76
2023/12/20 09:23:08;;;;;;;31.05;3.95;;;9.00;99.90;;;;;;5020029;28;20074;-76
2023/12/20 09:25:34;;;;;;;23.50;4.20;;;9.00;99.90;;;;;;5025073;28;20051;-76
2023/12/20 09:27:59;;;;;;;24.90;4.30;;;9.10;99.90;;;;;;5020794;28;20029;-76
2023/12/20 09:30:25;;;;;;;31.08;4.78;;;9.10;99.90;;;;;;5064209;27;20029;-76
2023/12/20 09:32:51;;;;;;;23.75;3.78;;;9.10;99.90;;;;;;5032010;27;20057;-76
2023/12/20 09:35:16;;;;;;;29.42;4.22;;;9.10;99.90;;;;;;5026385;28;20086;-76
2023/12/20 09:37:44;;;;;;;29.30;4.32;;;9.20;99.90;;;;;;5027821;28;20032;-76
2023/12/20 09:40:12;;;;;;;28.65;4.95;;;9.20;99.90;;;;;;5016997;28;20095;-76
2023/12/20 09:42:57;;;;;;;33.42;4.22;;;9.20;99.90;;;;;;5022587;28;20093;-76
2023/12/20 09:45:23;;;;;;;24.15;3.88;;;9.20;99.90;;;;;;5017065;27;20053;-76
2023/12/20 09:47:54;;;;;;;28.17;4.15;;;9.20;99.90;;;;;;5025585;28;20050;-76
2023/12/20 09:50:22;;;;;;;37.00;4.18;;;9.20;99.90;;;;;;5020876;28;20557;-76
2023/12/20 09:52:51;;;;;;;30.85;4.32;;;9.20;99.90;;;;;;5027178;28;20029;-76
2023/12/20 09:55:21;;;;;;;30.48;4.25;;;9.30;99.90;;;;;;5023795;28;20014;-75
2023/12/20 09:57:47;;;;;;;25.38;3.72;;;9.20;99.90;;;;;;5047821;27;20029;-76
2023/12/20 10:00:14;;;;;;;25.23;4.25;;;9.20;99.90;;;;;;5029389;28;20054;-76
2023/12/20 10:02:46;;;;;;;21.88;3.17;;;9.20;99.90;;;;;;5027038;28;20020;-76
2023/12/20 10:05:18;;;;;;;27.65;3.88;;;9.30;99.90;;;;;;5022683;28;20021;-76
2023/12/20 10:07:44;;;;;;;17.70;3.10;;;9.30;99.90;;;;;;5027464;28;20117;-76
2023/12/20 10:10:12;;;;;;;22.30;3.83;;;9.30;99.90;;;;;;5027785;28;20104;-76
2023/12/20 10:12:38;;;;;;;23.80;3.30;;;9.40;99.90;;;;;;5022677;28;20032;-76
2023/12/20 10:15:04;;;;;;;25.30;3.30;;;9.40;99.90;;;;;;5021414;28;20460;-76
2023/12/20 10:17:30;;;;;;;25.73;3.92;;;9.40;99.90;;;;;;5028382;28;20038;-76
2023/12/20 10:19:55;;;;;;;25.88;3.80;;;9.40;99.90;;;;;;5029350;28;20112;-76
2023/12/20 10:22:21;;;;;;;24.90;3.88;;;9.50;99.90;;;;;;5028385;28;20018;-76
2023/12/20 10:24:47;;;;;;;19.95;2.97;;;9.50;99.90;;;;;;5029754;28;20082;-75
2023/12/20 10:27:13;;;;;;;20.40;3.22;;;9.50;99.90;;;;;;5027824;28;20037;-76
2023/12/20 10:29:38;;;;;;;22.88;3.42;;;9.50;99.90;;;;;;5022872;28;20432;-75
2023/12/20 10:32:36;;;;;;;30.02;3.55;;;9.50;99.90;;;;;;5011965;28;20028;-76
2023/12/20 10:35:02;;;;;;;26.13;3.72;;;9.60;99.90;;;;;;5048749;28;20036;-75
2023/12/20 10:37:28;;;;;;;26.23;3.65;;;9.60;99.90;;;;;;5019451;28;20441;-76
2023/12/20 10:39:57;;;;;;;24.60;3.47;;;9.60;99.90;;;;;;5023780;28;20028;-75
2023/12/20 10:42:26;;;;;;;26.40;3.70;;;9.60;99.90;;;;;;5092435;28;20094;-76
2023/12/20 10:44:53;;;;;;;23.33;3.67;;;9.70;99.90;;;;;;5025082;28;20022;-76
2023/12/20 10:47:20;;;;;;;27.00;4.07;;;9.60;99.90;;;;;;5027087;28;20024;-76
2023/12/20 10:49:46;;;;;;;25.05;4.18;;;9.60;99.90;;;;;;5015445;28;20028;-75
2023/12/20 10:52:12;;;;;;;26.05;3.72;;;9.70;99.90;;;;;;5026976;28;20067;-76
2023/12/20 10:54:42;;;;;;;22.85;3.72;;;9.70;99.90;;;;;;5026230;28;20030;-76
2023/12/20 10:57:08;;;;;;;25.38;4.10;;;9.70;99.90;;;;;;5026242;28;20029;-76
2023/12/20 10:59:36;;;;;;;23.90;3.47;;;9.70;99.90;;;;;;5023283;28;20408;-76
2023/12/20 11:02:06;;;;;;;24.17;3.70;;;9.70;99.90;;;;;;5026647;28;20666;-76
2023/12/20 11:05:03;;;;;;;31.48;3.53;;;9.80;99.90;;;;;;5028269;28;20025;-76
2023/12/20 11:07:42;;;;;;;23.30;3.50;;;9.80;99.90;;;;;;5028087;28;20038;-76
2023/12/20 11:10:16;;;;;;;31.00;4.35;;;9.90;99.90;;;;;;5025545;28;20393;-76
2023/12/20 11:12:53;;;;;;;19.02;3.20;;;9.90;99.90;;;;;;5025134;28;20086;-76
2023/12/20 11:15:20;;;;;;;19.15;3.13;;;10.00;99.90;;;;;;5027032;28;20049;-76
2023/12/20 11:17:48;;;;;;;30.65;3.97;;;10.00;99.90;;;;;;5027905;28;20052;-76
2023/12/20 11:20:14;;;;;;;22.08;3.22;;;10.00;99.90;;;;;;5026454;28;20018;-76
2023/12/20 11:22:54;;;;;;;22.05;3.25;;;10.00;99.90;;;;;;5029269;28;20018;-76
2023/12/20 11:25:20;;;;;;;27.92;4.03;;;10.00;99.90;;;;;;5025533;28;20521;-76
2023/12/20 11:28:10;;;;;;;18.70;3.40;;;10.00;99.90;;;;;;5028976;28;20790;-76
2023/12/20 11:31:02;;;;;;;24.95;3.60;;;10.00;99.90;;;;;;5024300;28;20071;-76
2023/12/20 11:33:38;;;;;;;21.63;3.45;;;10.00;99.90;;;;;;5025816;28;20061;-76
2023/12/20 11:36:12;;;;;;;18.48;3.38;;;10.00;99.90;;;;;;5024451;28;20021;-76
2023/12/20 11:38:38;;;;;;;18.17;3.13;;;10.00;99.90;;;;;;5028228;28;20039;-76
2023/12/20 11:41:06;;;;;;;26.92;4.10;;;10.00;99.90;;;;;;5019632;28;20104;-76
2023/12/20 11:43:39;;;;;;;19.60;3.30;;;10.00;99.90;;;;;;5023039;28;20044;-76
2023/12/20 11:46:06;;;;;;;19.38;3.17;;;10.00;99.90;;;;;;5028567;28;20022;-75
2023/12/20 11:48:32;;;;;;;31.45;3.90;;;10.10;99.90;;;;;;5026339;28;20051;-76
2023/12/20 11:50:58;;;;;;;23.70;3.35;;;10.00;99.90;;;;;;5025952;28;20028;-76
2023/12/20 11:53:24;;;;;;;19.55;3.22;;;10.00;99.90;;;;;;5027649;28;20025;-76
2023/12/20 11:55:50;;;;;;;17.50;3.03;;;10.00;99.90;;;;;;5019640;28;20066;-75
2023/12/20 11:58:16;;;;;;;23.75;3.58;;;10.10;99.90;;;;;;5023650;27;20026;-75
2023/12/20 12:00:45;;;;;;;24.00;3.10;;;10.00;99.90;;;;;;5027025;28;20525;-76
2023/12/20 12:03:15;;;;;;;24.48;3.28;;;10.10;99.90;;;;;;5008805;28;20033;-76
2023/12/20 12:05:40;;;;;;;21.40;3.30;;;10.10;99.90;;;;;;5025861;28;20108;-76
2023/12/20 12:08:07;;;;;;;31.15;3.70;;;10.10;99.90;;;;;;5018928;28;20125;-75
2023/12/20 12:10:33;;;;;;;22.05;3.40;;;10.10;99.90;;;;;;5023912;28;20545;-76
2023/12/20 12:13:00;;;;;;;24.20;4.00;;;10.10;99.90;;;;;;5079312;28;20110;-76
2023/12/20 12:15:26;;;;;;;19.42;3.13;;;10.10;99.90;;;;;;5015751;28;20598;-76
2023/12/20 12:17:56;;;;;;;20.15;3.45;;;10.10;99.90;;;;;;5021110;28;20125;-76
2023/12/20 12:20:22;;;;;;;27.70;3.63;;;10.10;99.90;;;;;;5019662;28;20034;-76
2023/12/20 12:23:05;;;;;;;24.90;3.65;;;10.10;99.90;;;;;;5022768;28;20049;-76
2023/12/20 12:25:35;;;;;;;17.98;3.58;;;10.10;99.90;;;;;;5023814;28;20528;-76
2023/12/20 12:28:01;;;;;;;19.83;3.28;;;10.10;99.90;;;;;;5040719;27;20025;-76
2023/12/20 12:30:27;;;;;;;30.63;3.60;;;10.10;99.90;;;;;;5027817;27;20040;-76
2023/12/20 12:32:53;;;;;;;23.85;3.53;;;10.10;99.90;;;;;;5026429;28;20025;-76
2023/12/20 12:35:19;;;;;;;21.77;3.20;;;10.10;99.90;;;;;;5017669;28;20448;-76
2023/12/20 12:37:45;;;;;;;28.15;3.70;;;10.10;99.90;;;;;;5026711;28;20431;-76
2023/12/20 12:40:13;;;;;;;17.67;3.38;;;10.10;99.90;;;;;;5025545;28;20074;-76
2023/12/20 12:42:39;;;;;;;24.58;3.70;;;10.10;99.90;;;;;;5019073;28;20032;-76